Terminal Aerodrome Forecast
Issued by NWS

Home | Current Version | Previous Version | Text Only | Print | Product List | Glossary On
Versions: 1 2 3 4 5 6 7 8 9 10 11 12 13 14
000
FTUS44 KEPZ 280540
TAFTCS
TAF
KTCS 280540Z 2806/0106 22010KT P6SM SCT120 OVC250
     FM281500 21019G26KT P6SM FEW100 SCT150
     FM281800 24029G37KT P6SM SCT080
     FM010100 27019G26KT P6SM SKC
     FM010300 29011KT P6SM SKC=

USA.gov is the U.S. government's official web portal to all federal, state and local government web resources and services.